Time;durP1;ratioP1;P1;durP2;ratioP2;P2;SDS_P1;SDS_P2;PMS_P1;PMS_P2;Temp;Humidity;BMP_temperature;BMP_pressure;BME280_temperature;BME280_humidity;BME280_pressure;Samples;Min_cycle;Max_cycle;Signal;HPM_P1;HPM_P2
2020/12/03 00:01:07;;;;;;;11.35;4.03;;;20.10;88.20;;;;;;6218124;23;20030;-81
2020/12/03 00:03:38;;;;;;;16.27;5.03;;;20.00;88.10;;;;;;6224238;23;20464;-79
2020/12/03 00:06:18;;;;;;;13.15;4.47;;;20.10;88.20;;;;;;6188949;23;20080;-80
2020/12/03 00:08:48;;;;;;;;;;;20.00;88.20;;;;;;6217743;22;20025;-80
2020/12/03 00:11:15;;;;;;;12.77;4.88;;;20.00;88.40;;;;;;6277301;22;19926;-80
2020/12/03 00:13:47;;;;;;;14.47;4.20;;;20.00;88.60;;;;;;6276960;22;20016;-80
2020/12/03 00:16:15;;;;;;;12.73;4.38;;;19.90;88.80;;;;;;6277730;22;20552;-80
2020/12/03 00:18:44;;;;;;;14.15;4.53;;;19.90;88.90;;;;;;6279286;22;20015;-81
2020/12/03 00:21:12;;;;;;;13.50;4.20;;;19.90;89.10;;;;;;6281593;22;20011;-79
2020/12/03 00:23:42;;;;;;;14.85;4.80;;;19.80;89.20;;;;;;6292193;22;20242;-78
2020/12/03 00:26:11;;;;;;;13.88;4.70;;;19.80;89.30;;;;;;6275299;22;20027;-80
2020/12/03 00:28:42;;;;;;;14.38;4.45;;;19.70;89.50;;;;;;6290692;22;20008;-79
2020/12/03 00:31:10;;;;;;;13.50;4.47;;;19.70;89.70;;;;;;6272406;22;20015;-78
2020/12/03 00:33:37;;;;;;;11.32;4.00;;;19.70;89.90;;;;;;6294065;22;20026;-79
2020/12/03 00:36:11;;;;;;;13.23;4.32;;;19.70;90.00;;;;;;6284958;22;20517;-80
2020/12/03 00:38:38;;;;;;;12.55;3.92;;;19.60;90.10;;;;;;6286771;22;20011;-80
2020/12/03 00:41:05;;;;;;;14.65;4.53;;;19.60;90.10;;;;;;6254051;22;20026;-80
2020/12/03 00:43:32;;;;;;;14.03;4.13;;;19.60;90.20;;;;;;6280478;22;20347;-80
2020/12/03 00:45:59;;;;;;;10.13;3.83;;;19.60;90.30;;;;;;6280374;22;20019;-80
2020/12/03 00:48:26;;;;;;;12.27;4.27;;;19.60;90.30;;;;;;6279628;22;20019;-79
2020/12/03 00:50:53;;;;;;;11.77;3.58;;;19.50;90.40;;;;;;6282418;22;20352;-79
2020/12/03 00:53:22;;;;;;;13.40;4.53;;;19.50;90.50;;;;;;6252698;22;20022;-79
2020/12/03 00:55:49;;;;;;;10.88;3.90;;;19.50;90.50;;;;;;6282017;22;20012;-79
2020/12/03 00:58:17;;;;;;;12.23;4.20;;;19.50;90.60;;;;;;6259814;22;20020;-80
2020/12/03 01:00:46;;;;;;;10.80;3.90;;;19.40;90.60;;;;;;6280516;22;20517;-79
2020/12/03 01:03:13;;;;;;;12.68;4.40;;;19.40;90.70;;;;;;6276409;22;20020;-79
2020/12/03 01:05:40;;;;;;;12.80;4.53;;;19.40;90.70;;;;;;6282161;22;20026;-80
2020/12/03 01:08:07;;;;;;;11.13;4.15;;;19.40;91.00;;;;;;6278111;22;20026;-80
2020/12/03 01:10:35;;;;;;;10.13;3.80;;;19.40;90.80;;;;;;6279595;22;20024;-80
2020/12/03 01:13:03;;;;;;;;;;;19.40;90.90;;;;;;6278526;22;20019;-80
2020/12/03 01:15:30;;;;;;;;;;;19.40;90.90;;;;;;6277516;22;19915;-80
2020/12/03 01:18:03;;;;;;;15.18;4.20;;;19.40;91.00;;;;;;6278927;22;20349;-80
2020/12/03 01:20:30;;;;;;;12.45;4.03;;;19.40;90.90;;;;;;6288701;22;20022;-79
2020/12/03 01:22:57;;;;;;;13.13;4.25;;;19.40;90.90;;;;;;6249664;22;20027;-81
2020/12/03 01:25:25;;;;;;;8.77;3.40;;;19.50;90.80;;;;;;6277595;22;20022;-80
2020/12/03 01:27:59;;;;;;;12.50;4.35;;;19.50;90.80;;;;;;6276913;22;20356;-82
2020/12/03 01:30:26;;;;;;;15.85;5.35;;;19.50;90.70;;;;;;6297769;22;20004;-81
2020/12/03 01:32:53;;;;;;;10.87;3.47;;;19.60;90.70;;;;;;6278821;22;20435;-79
2020/12/03 01:35:21;;;;;;;10.57;3.85;;;19.60;90.70;;;;;;6281650;22;20012;-80
2020/12/03 01:37:49;;;;;;;10.43;3.55;;;19.60;90.60;;;;;;6279059;22;20020;-78
2020/12/03 01:40:21;;;;;;;11.25;3.72;;;19.70;90.60;;;;;;6277715;22;20439;-80
2020/12/03 01:42:49;;;;;;;13.10;4.28;;;19.70;90.50;;;;;;6284662;22;20026;-81
2020/12/03 01:45:43;;;;;;;10.93;3.70;;;19.70;90.40;;;;;;6277209;22;20022;-80
2020/12/03 01:48:34;;;;;;;10.25;3.80;;;19.70;90.30;;;;;;6290594;22;20422;-80
2020/12/03 01:51:12;;;;;;;10.82;3.35;;;19.70;90.40;;;;;;6254064;22;20023;-80
2020/12/03 01:53:39;;;;;;;10.20;3.90;;;19.70;90.40;;;;;;6283713;22;20076;-80
2020/12/03 01:56:38;;;;;;;12.17;3.90;;;19.70;90.40;;;;;;6276263;22;20015;-80
2020/12/03 01:59:05;;;;;;;12.68;4.10;;;19.60;90.50;;;;;;6287532;22;20015;-80
2020/12/03 02:01:34;;;;;;;10.07;3.50;;;19.60;90.50;;;;;;6275226;22;20324;-80
2020/12/03 02:04:02;;;;;;;13.02;4.47;;;19.60;90.50;;;;;;6279726;22;20033;-79
2020/12/03 02:06:36;;;;;;;10.63;3.78;;;19.60;90.60;;;;;;6280045;22;20022;-79
2020/12/03 02:09:04;;;;;;;14.52;5.18;;;19.60;90.60;;;;;;6253381;22;20739;-79
2020/12/03 02:11:31;;;;;;;9.02;3.38;;;19.60;90.70;;;;;;6278615;22;20451;-80
2020/12/03 02:14:04;;;;;;;10.85;3.50;;;19.60;90.70;;;;;;6278684;22;20026;-81
2020/12/03 02:16:35;;;;;;;8.40;3.50;;;19.50;90.70;;;;;;6275060;22;20026;-81
2020/12/03 02:19:13;;;;;;;7.53;3.28;;;19.50;90.80;;;;;;6290373;22;20025;-80
2020/12/03 02:21:41;;;;;;;9.85;3.92;;;19.40;90.80;;;;;;6289811;22;20011;-82
2020/12/03 02:24:09;;;;;;;11.85;3.95;;;19.40;90.80;;;;;;6280581;22;20012;-80
2020/12/03 02:26:36;;;;;;;12.75;3.97;;;19.40;90.90;;;;;;6254065;22;20011;-80
2020/12/03 02:29:04;;;;;;;13.55;4.82;;;19.40;91.10;;;;;;6280930;22;20078;-80
2020/12/03 02:31:31;;;;;;;9.27;3.50;;;19.30;91.20;;;;;;6252623;22;20016;-80
2020/12/03 02:33:57;;;;;;;10.65;3.38;;;19.30;91.00;;;;;;6279742;22;20016;-80
2020/12/03 02:36:24;;;;;;;12.07;4.03;;;19.30;91.00;;;;;;6280056;22;20030;-80
2020/12/03 02:38:51;;;;;;;14.70;4.38;;;19.20;91.10;;;;;;6280430;22;20019;-80
2020/12/03 02:41:18;;;;;;;9.80;3.58;;;19.20;91.10;;;;;;6279224;22;20027;-80
2020/12/03 02:43:47;;;;;;;10.40;3.65;;;19.20;91.20;;;;;;6277719;22;20043;-80
2020/12/03 02:46:14;;;;;;;12.23;3.72;;;19.20;91.20;;;;;;6279763;22;20016;-80
2020/12/03 02:48:41;;;;;;;10.68;3.65;;;19.20;91.30;;;;;;6251662;22;20018;-80
2020/12/03 02:51:08;;;;;;;11.52;3.88;;;19.10;91.20;;;;;;6253518;22;20023;-79
2020/12/03 02:53:35;;;;;;;9.33;3.40;;;19.10;91.30;;;;;;6254305;22;20044;-80
2020/12/03 02:56:12;;;;;;;11.30;3.75;;;19.20;91.30;;;;;;6277911;22;20015;-79
2020/12/03 02:58:39;;;;;;;9.50;3.33;;;19.20;91.30;;;;;;6280353;22;20011;-80
2020/12/03 03:01:06;;;;;;;10.00;3.70;;;19.20;91.20;;;;;;6283091;22;20015;-79
2020/12/03 03:03:35;;;;;;;10.70;3.80;;;19.30;91.20;;;;;;6252644;22;20023;-80
2020/12/03 03:06:03;;;;;;;9.55;3.40;;;19.30;91.10;;;;;;6279239;22;20019;-80
2020/12/03 03:08:32;;;;;;;8.05;3.20;;;19.30;91.10;;;;;;6280003;22;20454;-80
2020/12/03 03:10:59;;;;;;;9.90;3.75;;;19.30;91.00;;;;;;6278048;22;20517;-80
2020/12/03 03:13:28;;;;;;;10.95;3.38;;;19.30;91.00;;;;;;6281285;22;20022;-79
2020/12/03 03:15:55;;;;;;;8.95;2.95;;;19.30;91.00;;;;;;6284192;22;20008;-78
2020/12/03 03:18:23;;;;;;;8.65;3.33;;;19.30;91.20;;;;;;6280852;22;20011;-79
2020/12/03 03:20:51;;;;;;;11.18;3.85;;;19.30;91.00;;;;;;6294801;22;20030;-79
2020/12/03 03:23:18;;;;;;;6.70;2.95;;;19.30;90.90;;;;;;6292788;22;20031;-79
2020/12/03 03:25:48;;;;;;;11.55;3.92;;;19.30;91.00;;;;;;6287436;22;20019;-80
2020/12/03 03:28:15;;;;;;;10.10;3.70;;;19.30;91.00;;;;;;6281198;22;20034;-80
2020/12/03 03:30:42;;;;;;;8.35;3.33;;;19.20;91.00;;;;;;6284918;22;20015;-79
2020/12/03 03:33:09;;;;;;;11.55;3.25;;;19.20;91.10;;;;;;6258824;22;20023;-80
2020/12/03 03:35:36;;;;;;;11.20;4.03;;;19.20;91.10;;;;;;6276253;22;20026;-80
2020/12/03 03:38:03;;;;;;;8.10;3.30;;;19.10;91.20;;;;;;6275039;22;20020;-80
2020/12/03 03:40:30;;;;;;;7.85;3.20;;;19.10;91.30;;;;;;6272596;22;20046;-80
2020/12/03 03:42:57;;;;;;;8.20;3.35;;;19.00;91.30;;;;;;6246297;22;20034;-79
2020/12/03 03:45:24;;;;;;;7.78;3.00;;;19.00;91.40;;;;;;6275169;22;20020;-79
2020/12/03 03:47:51;;;;;;;10.07;3.40;;;19.00;91.50;;;;;;6275051;22;20022;-79
2020/12/03 03:50:18;;;;;;;11.90;3.50;;;19.00;91.50;;;;;;6246327;22;20241;-79
2020/12/03 03:52:46;;;;;;;11.23;3.60;;;19.00;91.60;;;;;;6249492;22;20023;-80
2020/12/03 03:55:15;;;;;;;9.40;3.13;;;18.90;91.60;;;;;;6274375;22;20011;-81
2020/12/03 03:57:41;;;;;;;11.77;3.42;;;18.90;91.60;;;;;;6279111;22;20018;-80
2020/12/03 04:00:08;;;;;;;7.65;3.40;;;18.90;91.70;;;;;;6253316;22;20342;-80
2020/12/03 04:02:35;;;;;;;9.07;3.20;;;18.90;91.70;;;;;;6279305;22;20354;-80
2020/12/03 04:05:03;;;;;;;8.30;3.35;;;18.80;91.70;;;;;;6249260;22;20030;-80
2020/12/03 04:07:30;;;;;;;8.55;3.22;;;18.80;91.70;;;;;;6250268;22;20022;-80
2020/12/03 04:09:57;;;;;;;;;;;18.80;91.80;;;;;;6278503;22;20499;-81
2020/12/03 04:12:24;;;;;;;10.85;3.33;;;18.80;91.80;;;;;;6277762;22;20587;-80
2020/12/03 04:14:51;;;;;;;10.20;3.60;;;18.80;91.80;;;;;;6278920;22;20027;-81
2020/12/03 04:17:20;;;;;;;7.90;2.88;;;18.90;91.80;;;;;;6281209;22;20016;-81
2020/12/03 04:19:51;;;;;;;9.57;3.20;;;18.90;91.80;;;;;;6282755;22;20012;-81
2020/12/03 04:22:18;;;;;;;9.82;3.42;;;18.90;91.70;;;;;;6302040;22;20015;-80
2020/12/03 04:24:47;;;;;;;9.00;3.28;;;18.90;91.60;;;;;;6290251;22;20016;-79
2020/12/03 04:27:15;;;;;;;10.35;3.50;;;19.00;91.60;;;;;;6284832;22;20016;-80
2020/12/03 04:29:42;;;;;;;6.22;2.72;;;19.00;91.60;;;;;;6283296;22;20024;-80
2020/12/03 04:32:09;;;;;;;7.38;3.17;;;19.00;91.60;;;;;;6281075;22;20392;-80
2020/12/03 04:34:39;;;;;;;5.03;2.85;;;19.00;91.50;;;;;;6284710;22;20025;-80
2020/12/03 04:37:11;;;;;;;8.32;3.35;;;19.10;91.40;;;;;;6281077;22;20018;-80
2020/12/03 04:39:38;;;;;;;7.18;2.58;;;19.10;91.40;;;;;;6276833;22;20008;-80
2020/12/03 04:42:23;;;;;;;6.57;2.67;;;19.10;91.30;;;;;;6278178;22;20008;-80
2020/12/03 04:44:54;;;;;;;9.88;3.53;;;19.20;91.20;;;;;;6279267;22;20607;-80
2020/12/03 04:48:03;;;;;;;7.88;2.88;;;19.20;91.10;;;;;;6293697;22;20019;-78
2020/12/03 04:51:28;;;;;;;9.73;3.13;;;19.20;91.00;;;;;;6300420;22;20011;-79
2020/12/03 04:54:20;;;;;;;7.93;3.22;;;19.30;91.00;;;;;;6165022;23;20013;-80
2020/12/03 04:57:26;;;;;;;12.73;3.45;;;19.30;91.00;;;;;;6302482;22;20014;-80
2020/12/03 05:00:19;;;;;;;10.90;3.38;;;19.20;91.00;;;;;;6306465;22;20000;-79
2020/12/03 05:02:55;;;;;;;11.18;3.40;;;19.40;90.90;;;;;;6305315;22;20011;-78
2020/12/03 05:05:39;;;;;;;9.27;3.20;;;19.40;90.90;;;;;;6268740;22;20015;-80
2020/12/03 05:08:55;;;;;;;9.07;3.00;;;19.50;90.90;;;;;;6298175;22;20015;-79
2020/12/03 05:11:36;;;;;;;9.18;2.92;;;19.60;90.60;;;;;;6286385;22;20020;-80
2020/12/03 05:14:44;;;;;;;10.68;3.33;;;19.70;90.40;;;;;;6295379;22;20012;-79
2020/12/03 05:17:51;;;;;;;6.63;2.80;;;19.70;90.10;;;;;;6295024;22;20015;-79
2020/12/03 05:20:31;;;;;;;5.30;2.38;;;19.80;90.00;;;;;;6295326;22;20447;-79
2020/12/03 05:23:26;;;;;;;10.00;3.20;;;19.90;89.50;;;;;;6294014;22;20019;-78
2020/12/03 05:25:56;;;;;;;9.25;2.90;;;20.00;89.00;;;;;;6258981;22;20266;-78
2020/12/03 05:28:39;;;;;;;8.80;3.10;;;20.10;88.30;;;;;;6278913;22;20024;-79
2020/12/03 05:31:30;;;;;;;6.80;2.92;;;20.30;87.80;;;;;;6278549;22;20030;-79
2020/12/03 05:34:11;;;;;;;9.00;2.92;;;20.40;87.40;;;;;;6249758;22;20012;-80
2020/12/03 05:36:55;;;;;;;7.95;2.85;;;20.30;87.10;;;;;;6275272;22;20020;-79
2020/12/03 05:39:35;;;;;;;7.07;2.72;;;20.30;87.20;;;;;;6277217;22;20012;-79
2020/12/03 05:42:06;;;;;;;9.82;3.75;;;20.40;87.10;;;;;;6283068;22;20033;-78
2020/12/03 05:44:36;;;;;;;8.65;3.13;;;20.40;86.90;;;;;;6280228;22;20012;-78
2020/12/03 05:47:18;;;;;;;9.48;3.60;;;20.40;86.80;;;;;;6271229;22;20179;-80
2020/12/03 05:49:48;;;;;;;8.65;2.92;;;20.50;86.50;;;;;;6277545;22;20022;-79
2020/12/03 05:52:19;;;;;;;10.65;3.40;;;20.60;86.30;;;;;;6286352;22;20022;-78
2020/12/03 05:55:09;;;;;;;8.18;2.70;;;20.70;86.00;;;;;;6257340;22;20015;-78
2020/12/03 05:57:41;;;;;;;5.15;2.50;;;21.10;85.50;;;;;;6286574;22;20015;-80
2020/12/03 06:00:19;;;;;;;11.43;3.28;;;21.40;84.30;;;;;;6282277;22;20020;-78
2020/12/03 06:02:54;;;;;;;8.45;3.08;;;21.80;83.20;;;;;;6225532;22;20019;-78
2020/12/03 06:05:46;;;;;;;8.18;2.58;;;22.10;82.00;;;;;;6252571;22;20034;-79
2020/12/03 06:08:56;;;;;;;7.13;2.63;;;22.30;81.30;;;;;;6253072;22;20023;-79
2020/12/03 06:11:39;;;;;;;5.47;2.33;;;22.50;80.70;;;;;;6215801;22;20023;-81
2020/12/03 06:15:37;;;;;;;9.00;2.70;;;22.60;80.10;;;;;;6201450;22;20024;-81
2020/12/03 06:19:35;;;;;;;6.05;2.83;;;22.60;79.80;;;;;;6253921;22;20029;-79
2020/12/03 06:23:08;;;;;;;12.07;3.08;;;22.70;79.80;;;;;;6253247;22;20023;-81
2020/12/03 06:26:40;;;;;;;7.60;2.63;;;22.60;79.70;;;;;;6166940;23;20032;-81
2020/12/03 06:30:23;;;;;;;;;;;;;;;;;;;;;
2020/12/03 06:34:21;;;;;;;8.30;2.65;;;22.50;80.30;;;;;;6186868;23;20021;-85
2020/12/03 06:42:34;;;;;;;5.82;2.60;;;22.50;81.10;;;;;;6198911;23;20016;-83
2020/12/03 06:46:08;;;;;;;28.58;4.18;;;22.40;81.70;;;;;;6152504;23;20146;-81
2020/12/03 06:50:17;;;;;;;26.70;5.30;;;22.40;83.80;;;;;;6094298;23;20033;-85
2020/12/03 06:54:17;;;;;;;19.35;3.92;;;22.30;86.00;;;;;;5978960;23;20035;-82
2020/12/03 07:06:43;;;;;;;;;;;;;;;;;;;;;
2020/12/03 07:10:36;;;;;;;20.52;5.10;;;22.20;88.60;;;;;;6045851;23;20162;-79
2020/12/03 07:59:26;;;;;;;12.52;3.78;;;21.30;85.30;;;;;;6162053;23;20016;-84
2020/12/03 08:20:21;;;;;;;13.55;3.63;;;21.40;86.70;;;;;;6334590;22;20014;-80
2020/12/03 08:24:18;;;;;;;19.45;5.68;;;21.40;86.60;;;;;;6270868;22;20027;-82
2020/12/03 08:28:22;;;;;;;19.17;4.30;;;21.50;88.60;;;;;;6312480;22;20033;-81
2020/12/03 08:31:49;;;;;;;;;;;;;;;;;;;;;
2020/12/03 08:36:08;;;;;;;;;;;;;;;;;;;;;
2020/12/03 08:40:17;;;;;;;;;;;;;;;;;;;;;
2020/12/03 08:52:51;;;;;;;15.85;3.78;;;21.30;88.20;;;;;;6074546;23;20052;-84
2020/12/03 09:00:24;;;;;;;13.60;3.85;;;21.20;88.40;;;;;;6015907;23;20000;-82
2020/12/03 09:19:46;;;;;;;13.30;3.92;;;21.20;89.00;;;;;;5971308;24;20016;-84
2020/12/03 09:26:43;;;;;;;15.45;3.80;;;21.80;87.20;;;;;;5955592;24;20019;-81
2020/12/03 09:29:29;;;;;;;11.48;4.15;;;22.10;85.80;;;;;;6067003;23;20023;-82
2020/12/03 09:38:49;;;;;;;10.88;3.65;;;22.30;84.50;;;;;;6285873;22;20019;-84
2020/12/03 09:42:52;;;;;;;10.32;3.42;;;22.30;84.40;;;;;;6308296;22;20038;-83
2020/12/03 09:51:07;;;;;;;13.32;3.80;;;22.40;84.00;;;;;;6294662;22;20041;-82
2020/12/03 09:54:50;;;;;;;;;;;;;;;;;;;;;
2020/12/03 09:58:03;;;;;;;11.05;3.72;;;22.20;84.50;;;;;;6197175;23;20025;-83
2020/12/03 10:00:52;;;;;;;10.02;3.25;;;22.10;85.00;;;;;;6193170;23;20108;-84
2020/12/03 10:13:32;;;;;;;13.20;3.17;;;21.80;86.50;;;;;;6000998;23;20020;-81
2020/12/03 10:23:33;;;;;;;12.45;3.42;;;21.80;87.00;;;;;;6275673;22;20011;-81
2020/12/03 10:39:24;;;;;;;11.10;3.25;;;21.90;88.40;;;;;;6288891;22;20027;-82
2020/12/03 11:08:45;;;;;;;11.20;3.20;;;22.00;88.20;;;;;;6166803;23;20032;-82
2020/12/03 11:13:08;;;;;;;7.82;3.17;;;22.10;87.60;;;;;;6161400;23;20069;-85
2020/12/03 11:16:17;;;;;;;11.10;3.22;;;22.10;87.40;;;;;;5901463;24;20023;-83
2020/12/03 12:16:26;;;;;;;17.05;4.93;;;23.40;94.60;;;;;;6253085;22;20023;-83
2020/12/03 13:17:34;;;;;;;11.43;3.70;;;22.10;91.40;;;;;;6303405;22;20030;-83
2020/12/03 13:38:56;;;;;;;11.93;3.15;;;22.00;91.30;;;;;;6306151;22;20369;-84
2020/12/03 13:41:42;;;;;;;10.32;3.10;;;22.00;91.30;;;;;;6269750;22;20023;-83
2020/12/03 13:44:22;;;;;;;12.25;3.35;;;21.90;91.30;;;;;;6293180;22;20041;-84
2020/12/03 13:47:51;;;;;;;17.17;3.35;;;21.90;91.20;;;;;;6318828;22;20030;-82
2020/12/03 14:01:05;;;;;;;;;;;;;;;;;;;;;
2020/12/03 14:17:23;;;;;;;10.27;3.20;;;21.90;91.00;;;;;;6072353;23;20087;-82
2020/12/03 14:44:07;;;;;;;13.18;3.50;;;22.50;89.30;;;;;;6222827;23;20012;-82
2020/12/03 14:47:08;;;;;;;9.70;3.22;;;22.50;89.20;;;;;;6222492;23;20810;-82
2020/12/03 14:50:35;;;;;;;7.22;2.88;;;22.50;89.10;;;;;;6237358;23;20028;-82
2020/12/03 14:58:55;;;;;;;;;;;;;;;;;;;;;
2020/12/03 15:17:18;;;;;;;;;;;;;;;;;;;;;
2020/12/03 15:20:14;;;;;;;9.70;2.95;;;22.00;90.40;;;;;;6190872;23;20025;-83
2020/12/03 15:32:23;;;;;;;5.57;2.60;;;21.90;90.70;;;;;;6235809;22;20024;-86
2020/12/03 15:41:17;;;;;;;6.50;2.80;;;21.90;90.70;;;;;;6236562;22;20040;-86
2020/12/03 15:43:47;;;;;;;8.77;2.50;;;21.90;90.60;;;;;;6235241;23;20055;-81
2020/12/03 16:03:46;;;;;;;11.77;3.30;;;22.10;90.20;;;;;;6158515;23;20032;-83
2020/12/03 16:11:00;;;;;;;10.75;2.60;;;22.20;89.90;;;;;;6178881;23;20007;-81
2020/12/03 16:13:34;;;;;;;6.78;2.40;;;22.30;89.70;;;;;;6150821;23;20152;-85
2020/12/03 16:16:34;;;;;;;8.07;2.42;;;22.30;90.10;;;;;;6143084;23;20097;-80
2020/12/03 16:19:22;;;;;;;12.52;2.65;;;22.30;89.90;;;;;;6126971;23;20021;-84
2020/12/03 16:25:54;;;;;;;7.65;2.47;;;22.30;90.40;;;;;;6091614;23;20029;-84
2020/12/03 16:29:10;;;;;;;11.13;2.70;;;22.30;90.20;;;;;;6042532;23;20066;-82
2020/12/03 16:32:53;;;;;;;8.55;2.80;;;22.20;90.30;;;;;;6092013;23;20055;-86
2020/12/03 16:35:56;;;;;;;11.30;2.90;;;22.10;90.60;;;;;;6049066;23;20019;-84
2020/12/03 16:39:24;;;;;;;7.53;2.42;;;22.20;90.30;;;;;;6030873;23;20042;-82
2020/12/03 16:42:42;;;;;;;8.63;2.63;;;22.10;90.40;;;;;;6052880;23;20027;-83
2020/12/03 16:46:03;;;;;;;7.80;2.33;;;22.10;90.50;;;;;;6070921;23;20033;-84
2020/12/03 16:58:08;;;;;;;8.90;2.53;;;21.90;91.00;;;;;;6023007;23;20024;-82
2020/12/03 17:04:48;;;;;;;11.50;2.90;;;22.00;90.70;;;;;;5959895;24;20012;-82
2020/12/03 17:07:51;;;;;;;8.60;2.92;;;22.10;90.50;;;;;;5986353;24;20010;-83
2020/12/03 17:22:04;;;;;;;9.35;2.97;;;22.20;90.10;;;;;;6024632;23;20015;-83
2020/12/03 17:24:32;;;;;;;10.02;2.58;;;22.20;90.20;;;;;;5934828;24;20009;-81
2020/12/03 17:26:59;;;;;;;13.43;2.80;;;22.10;90.50;;;;;;5981501;23;20008;-82
2020/12/03 17:29:28;;;;;;;33.60;8.00;;;22.00;90.90;;;;;;6011390;23;20022;-80
2020/12/03 17:32:03;;;;;;;25.50;7.28;;;22.00;94.10;;;;;;6030996;23;20033;-83
2020/12/03 17:34:48;;;;;;;34.00;6.07;;;22.00;95.00;;;;;;6083583;23;20023;-83
2020/12/03 17:37:19;;;;;;;24.30;6.45;;;22.10;95.10;;;;;;6090803;23;20019;-81
2020/12/03 17:39:46;;;;;;;21.52;4.78;;;22.10;94.80;;;;;;6091889;23;20022;-82
2020/12/03 17:42:14;;;;;;;24.70;5.30;;;22.00;94.30;;;;;;6104279;23;20022;-81
2020/12/03 17:44:44;;;;;;;20.25;4.88;;;22.00;93.60;;;;;;6079197;23;20018;-84
2020/12/03 17:47:23;;;;;;;28.83;6.45;;;22.00;93.10;;;;;;6078770;23;20622;-82
2020/12/03 17:53:32;;;;;;;19.50;4.82;;;21.90;91.30;;;;;;6152692;23;20024;-81
2020/12/03 17:56:01;;;;;;;13.98;4.03;;;22.00;91.20;;;;;;6194527;23;20028;-82
2020/12/03 17:58:29;;;;;;;15.85;4.90;;;21.90;91.20;;;;;;6197238;23;20013;-83
2020/12/03 18:00:56;;;;;;;20.13;4.75;;;21.90;91.00;;;;;;6201082;23;20348;-81
2020/12/03 18:03:24;;;;;;;14.05;4.50;;;21.90;91.00;;;;;;6237894;22;20026;-82
2020/12/03 18:05:51;;;;;;;18.48;3.70;;;21.90;90.90;;;;;;6240000;23;20019;-82
2020/12/03 18:12:57;;;;;;;20.65;4.82;;;21.90;90.90;;;;;;6188200;23;20030;-85
2020/12/03 18:15:27;;;;;;;17.60;4.47;;;21.80;91.10;;;;;;6163441;23;20029;-85
2020/12/03 18:19:02;;;;;;;;;;;;;;;;;;;;;
2020/12/03 18:23:18;;;;;;;22.98;4.43;;;21.80;91.30;;;;;;6196846;23;20020;-83
2020/12/03 18:41:19;;;;;;;16.20;3.58;;;21.80;91.30;;;;;;6173708;22;20880;-82
2020/12/03 18:48:57;;;;;;;13.43;3.58;;;21.70;91.60;;;;;;6285300;22;20030;-83
2020/12/03 18:56:20;;;;;;;;;;;;;;;;;;;;;
2020/12/03 19:00:36;;;;;;;17.30;3.72;;;21.90;91.20;;;;;;6255884;22;20018;-82
2020/12/03 19:03:55;;;;;;;15.48;3.22;;;21.90;90.80;;;;;;6242646;23;20022;-84
2020/12/03 19:06:35;;;;;;;14.20;3.58;;;21.90;90.60;;;;;;6258828;23;20016;-84
2020/12/03 19:09:09;;;;;;;21.83;3.53;;;21.90;90.60;;;;;;6215940;23;20024;-85
2020/12/03 19:11:39;;;;;;;14.02;3.15;;;21.90;90.50;;;;;;6243904;23;20023;-84
2020/12/03 19:14:22;;;;;;;14.00;2.88;;;22.10;90.30;;;;;;6215607;23;20348;-84
2020/12/03 19:17:11;;;;;;;12.65;3.17;;;22.20;90.10;;;;;;6217754;23;20016;-81
2020/12/03 19:19:54;;;;;;;9.60;2.85;;;22.20;89.70;;;;;;6217989;23;20020;-83
2020/12/03 19:22:22;;;;;;;10.95;3.13;;;22.30;89.40;;;;;;6191068;23;20024;-83
2020/12/03 19:24:50;;;;;;;12.13;3.50;;;22.30;89.80;;;;;;6191027;23;20321;-82
2020/12/03 19:27:44;;;;;;;20.23;3.20;;;22.30;89.40;;;;;;6213586;23;20024;-81
2020/12/03 19:30:20;;;;;;;16.02;3.72;;;22.20;89.60;;;;;;6224205;23;20026;-83
2020/12/03 19:32:55;;;;;;;8.90;2.92;;;22.10;89.80;;;;;;6252029;23;20016;-84
2020/12/03 19:35:52;;;;;;;13.68;3.33;;;22.20;90.00;;;;;;6213899;23;20019;-83
2020/12/03 19:38:22;;;;;;;8.88;3.10;;;22.10;90.00;;;;;;6186044;23;20178;-84
2020/12/03 19:41:07;;;;;;;13.75;2.95;;;22.20;90.00;;;;;;6221522;23;20027;-83
2020/12/03 19:43:49;;;;;;;8.45;3.10;;;22.20;90.00;;;;;;6254608;23;20012;-83
2020/12/03 19:46:19;;;;;;;14.82;3.15;;;22.30;89.80;;;;;;6249101;23;20031;-85
2020/12/03 19:48:47;;;;;;;9.77;3.08;;;22.20;89.60;;;;;;6224011;23;20030;-83
2020/12/03 19:51:15;;;;;;;14.32;3.55;;;22.30;89.80;;;;;;6247991;23;20050;-84
2020/12/03 19:54:03;;;;;;;;;;;;;;;;;;;;;
2020/12/03 20:01:31;;;;;;;9.20;3.03;;;22.10;90.30;;;;;;6237907;23;20027;-85
2020/12/03 20:03:58;;;;;;;12.38;4.25;;;22.00;90.40;;;;;;6199256;23;20017;-84
2020/12/03 20:06:28;;;;;;;12.98;3.03;;;22.00;90.50;;;;;;6199757;23;20027;-82
2020/12/03 20:08:56;;;;;;;15.98;2.95;;;22.00;90.50;;;;;;6225713;23;20039;-84
2020/12/03 20:11:34;;;;;;;10.05;3.38;;;21.90;90.50;;;;;;6232664;23;20027;-83
2020/12/03 20:14:04;;;;;;;14.05;3.60;;;21.90;90.50;;;;;;6196241;23;20160;-80
2020/12/03 20:16:33;;;;;;;13.68;3.70;;;21.80;90.60;;;;;;6223581;23;20024;-83
2020/12/03 20:19:01;;;;;;;15.20;3.42;;;21.80;90.70;;;;;;6195779;23;20357;-82
2020/12/03 20:21:28;;;;;;;;;;;21.70;90.70;;;;;;6199148;23;20084;-83
2020/12/03 20:23:59;;;;;;;12.18;3.03;;;21.70;90.80;;;;;;6202050;23;19919;-82
2020/12/03 20:26:40;;;;;;;10.95;2.97;;;21.70;90.60;;;;;;6192194;23;20035;-81
2020/12/03 20:29:16;;;;;;;16.65;3.38;;;21.70;90.70;;;;;;6229505;23;20067;-80
2020/12/03 20:32:43;;;;;;;15.70;2.65;;;21.70;90.80;;;;;;6232647;22;20019;-81
2020/12/03 20:43:45;;;;;;;10.55;2.80;;;21.60;91.40;;;;;;6127212;23;20018;-83
2020/12/03 20:50:41;;;;;;;9.63;2.63;;;21.60;91.30;;;;;;6151389;23;20070;-82
2020/12/03 20:53:19;;;;;;;9.88;2.80;;;21.60;91.40;;;;;;6144713;23;20029;-83
2020/12/03 20:56:24;;;;;;;10.10;2.80;;;21.50;91.60;;;;;;6132147;23;20022;-82
2020/12/03 20:59:18;;;;;;;8.70;3.05;;;21.50;91.90;;;;;;6160627;23;20031;-83
2020/12/03 21:01:56;;;;;;;10.38;2.72;;;21.40;92.00;;;;;;6136980;23;20019;-84
2020/12/03 21:04:38;;;;;;;12.38;2.92;;;21.40;92.10;;;;;;6113165;23;20017;-82
2020/12/03 21:08:02;;;;;;;11.63;2.63;;;21.40;92.10;;;;;;6018486;23;20020;-83
2020/12/03 21:11:06;;;;;;;10.35;2.72;;;21.40;92.10;;;;;;5965512;23;20034;-82
2020/12/03 21:13:54;;;;;;;8.57;2.50;;;21.40;92.10;;;;;;5994868;23;20019;-83
2020/12/03 21:16:43;;;;;;;5.78;2.05;;;21.40;92.10;;;;;;6017122;23;20023;-82
2020/12/03 21:19:32;;;;;;;;;;;;;;;;;;;;;
2020/12/03 21:22:18;;;;;;;6.70;2.42;;;21.40;92.10;;;;;;6120594;23;20025;-81
2020/12/03 21:26:00;;;;;;;9.48;3.30;;;21.40;92.20;;;;;;6239418;22;20046;-84
2020/12/03 21:29:44;;;;;;;;;;;;;;;;;;;;;
2020/12/03 21:36:25;;;;;;;8.80;3.70;;;21.20;92.10;;;;;;6212440;22;20363;-83
2020/12/03 21:44:41;;;;;;;16.52;5.38;;;20.10;60.70;;;;;;6044529;23;20030;-83
2020/12/03 21:47:19;;;;;;;17.00;5.80;;;19.60;68.00;;;;;;6101631;22;20024;-84
2020/12/03 21:50:03;;;;;;;17.52;5.38;;;19.70;68.70;;;;;;6263050;22;20020;-83
2020/12/03 21:52:49;;;;;;;13.57;4.28;;;19.80;69.80;;;;;;6226527;22;20016;-87
2020/12/03 21:59:28;;;;;;;15.63;4.68;;;20.10;71.80;;;;;;6188247;23;20120;-85
2020/12/03 22:02:03;;;;;;;12.13;4.05;;;20.20;72.90;;;;;;6181594;23;20017;-84
2020/12/03 22:04:33;;;;;;;11.55;3.90;;;20.20;73.60;;;;;;6200158;23;20027;-84
2020/12/03 22:07:42;;;;;;;12.23;4.10;;;20.30;74.20;;;;;;6197738;23;20028;-85
2020/12/03 22:10:54;;;;;;;11.57;3.53;;;20.30;74.90;;;;;;6261224;22;20020;-86
2020/12/03 22:13:36;;;;;;;10.20;3.35;;;20.30;75.60;;;;;;6294774;22;20121;-84
2020/12/03 22:16:07;;;;;;;8.18;3.17;;;20.40;76.30;;;;;;6268850;22;20015;-85
2020/12/03 22:18:37;;;;;;;12.25;3.50;;;20.40;76.80;;;;;;6274186;22;20011;-86
2020/12/03 22:21:04;;;;;;;;;;;20.40;77.20;;;;;;6273797;22;20016;-86
2020/12/03 22:23:46;;;;;;;10.02;3.70;;;20.40;77.60;;;;;;6263144;22;19915;-83
2020/12/03 22:26:23;;;;;;;9.85;2.83;;;20.40;78.10;;;;;;6248350;22;20026;-86
2020/12/03 22:28:58;;;;;;;9.70;3.30;;;20.40;78.50;;;;;;6223747;22;20020;-84
2020/12/03 22:31:25;;;;;;;10.15;3.17;;;20.40;78.90;;;;;;6248992;22;20346;-82
2020/12/03 22:33:55;;;;;;;16.45;3.00;;;20.40;79.80;;;;;;6248713;22;20020;-83
2020/12/03 22:36:27;;;;;;;8.80;2.78;;;20.40;79.50;;;;;;6252102;22;20026;-83
2020/12/03 22:38:55;;;;;;;10.50;3.58;;;20.40;79.80;;;;;;6264126;22;20019;-84
2020/12/03 22:41:25;;;;;;;8.32;2.95;;;20.40;80.00;;;;;;6251268;22;20011;-82
2020/12/03 22:43:52;;;;;;;6.90;2.55;;;20.40;80.30;;;;;;6280498;22;20015;-83
2020/12/03 22:46:19;;;;;;;7.78;2.95;;;20.40;80.50;;;;;;6252194;22;20015;-82
2020/12/03 22:48:47;;;;;;;7.75;3.25;;;20.40;80.70;;;;;;6283605;22;20030;-81
2020/12/03 22:51:21;;;;;;;7.82;2.67;;;20.40;80.90;;;;;;6267467;22;20015;-83
2020/12/03 22:53:53;;;;;;;9.32;3.00;;;20.40;81.20;;;;;;6250168;22;20026;-84
2020/12/03 22:56:33;;;;;;;9.30;2.90;;;20.40;81.40;;;;;;6278183;22;20338;-83
2020/12/03 22:59:06;;;;;;;6.63;2.65;;;20.40;81.60;;;;;;6248660;22;20012;-84
2020/12/03 23:01:33;;;;;;;6.05;2.53;;;20.30;81.70;;;;;;6248601;22;20960;-83